Time;durP1;ratioP1;P1;durP2;ratioP2;P2;SDS_P1;SDS_P2;PMS_P1;PMS_P2;Temp;Humidity;BMP_temperature;BMP_pressure;BME280_temperature;BME280_humidity;BME280_pressure;Samples;Min_cycle;Max_cycle;Signal;HPM_P1;HPM_P2
2021/05/16 00:01:40;;;;;;;16.15;2.80;;;;;;;10.55;100.00;99661.88;5022846;28;20509;-84
2021/05/16 00:04:06;;;;;;;12.68;3.30;;;;;;;10.62;100.00;99651.50;5026229;28;20099;-85
2021/05/16 00:06:31;;;;;;;11.13;1.90;;;;;;;10.55;100.00;99650.31;5026467;28;20297;-85
2021/05/16 00:08:57;;;;;;;16.35;3.53;;;;;;;10.54;100.00;99649.47;5010041;28;20087;-85
2021/05/16 00:11:22;;;;;;;11.18;2.40;;;;;;;10.45;100.00;99649.34;5025856;28;20072;-83
2021/05/16 00:13:48;;;;;;;22.35;3.80;;;;;;;10.57;100.00;99650.16;5022359;28;20439;-85
2021/05/16 00:16:14;;;;;;;14.27;2.67;;;;;;;10.51;100.00;99646.16;5028355;28;20336;-85
2021/05/16 00:18:40;;;;;;;18.00;2.65;;;;;;;10.55;100.00;99635.03;5024549;28;20134;-85
2021/05/16 00:21:05;;;;;;;15.48;2.38;;;;;;;10.48;100.00;99636.53;5021743;28;20629;-85
2021/05/16 00:23:31;;;;;;;15.60;2.72;;;;;;;10.52;100.00;99634.44;5010311;28;20476;-85
2021/05/16 00:25:56;;;;;;;12.93;2.90;;;;;;;10.42;100.00;99642.41;5025505;28;20039;-84
2021/05/16 00:28:22;;;;;;;14.60;2.78;;;;;;;10.51;100.00;99633.59;5028823;28;20110;-85
2021/05/16 00:30:47;;;;;;;17.15;3.25;;;;;;;10.52;100.00;99635.31;5011548;28;20119;-84
2021/05/16 00:33:13;;;;;;;11.02;2.60;;;;;;;10.44;100.00;99632.38;5007377;28;20029;-85
2021/05/16 00:35:38;;;;;;;13.98;3.53;;;;;;;10.50;100.00;99626.53;5024463;28;20479;-84
2021/05/16 00:38:04;;;;;;;22.63;4.40;;;;;;;10.50;100.00;99634.56;5014568;28;20450;-84
2021/05/16 00:40:34;;;;;;;27.50;3.90;;;;;;;10.51;100.00;99633.59;5022575;28;20056;-85
2021/05/16 00:43:00;;;;;;;15.77;2.22;;;;;;;10.54;100.00;99633.38;5010389;28;20037;-84
2021/05/16 00:45:26;;;;;;;16.00;3.20;;;;;;;10.59;100.00;99634.81;5005735;28;20044;-84
2021/05/16 00:47:55;;;;;;;19.02;3.00;;;;;;;10.64;100.00;99637.97;5020127;28;20049;-84
2021/05/16 00:50:23;;;;;;;19.35;3.25;;;;;;;10.54;100.00;99640.56;5005373;28;20041;-85
2021/05/16 00:52:49;;;;;;;20.42;2.80;;;;;;;10.74;100.00;99638.94;5022352;28;20033;-84
2021/05/16 00:55:17;;;;;;;17.05;2.80;;;;;;;10.65;100.00;99639.69;4996322;28;20104;-85
2021/05/16 00:57:44;;;;;;;20.05;3.08;;;;;;;10.58;100.00;99643.84;5009134;28;20026;-84
2021/05/16 01:00:13;;;;;;;19.40;2.53;;;;;;;10.61;100.00;99638.22;5005635;28;20033;-84
2021/05/16 01:02:39;;;;;;;24.40;3.05;;;;;;;10.54;100.00;99637.88;5033580;28;20103;-85
2021/05/16 01:05:07;;;;;;;14.85;3.05;;;;;;;10.53;100.00;99634.34;5024826;28;20112;-84
2021/05/16 01:07:34;;;;;;;18.13;2.22;;;;;;;10.62;100.00;99631.84;5007946;28;20037;-83
2021/05/16 01:10:02;;;;;;;14.75;2.47;;;;;;;10.67;100.00;99635.03;5023243;28;20041;-83
2021/05/16 01:12:33;;;;;;;13.73;3.03;;;;;;;10.73;100.00;99631.84;5024700;28;20111;-84
2021/05/16 01:15:02;;;;;;;16.45;2.10;;;;;;;10.62;100.00;99639.91;5015508;28;20251;-84
2021/05/16 01:17:29;;;;;;;15.52;3.08;;;;;;;10.61;100.00;99633.72;5018113;28;20634;-85
2021/05/16 01:19:55;;;;;;;17.15;3.20;;;;;;;10.67;100.00;99643.09;5024533;28;20033;-83
2021/05/16 01:22:22;;;;;;;20.77;3.30;;;;;;;10.59;100.00;99640.19;5026085;28;20429;-84
2021/05/16 01:24:48;;;;;;;17.05;2.58;;;;;;;10.55;100.00;99640.41;5008848;28;20029;-85
2021/05/16 01:27:16;;;;;;;18.30;1.98;;;;;;;10.49;100.00;99640.91;5022152;28;20038;-84
2021/05/16 01:29:42;;;;;;;22.85;3.33;;;;;;;10.56;100.00;99638.59;5019815;28;20034;-85
2021/05/16 01:32:12;;;;;;;20.98;3.10;;;;;;;10.60;100.00;99645.44;5016958;28;20168;-84
2021/05/16 01:34:42;;;;;;;18.60;3.10;;;;;;;10.53;100.00;99645.06;5020713;28;20483;-84
2021/05/16 01:37:10;;;;;;;14.00;2.42;;;;;;;10.53;100.00;99652.25;5008548;28;20029;-83
2021/05/16 01:39:37;;;;;;;18.58;3.08;;;;;;;10.40;100.00;99641.66;5023510;28;20399;-84
2021/05/16 01:42:04;;;;;;;19.08;2.55;;;;;;;10.36;100.00;99644.72;5024955;28;20152;-85
2021/05/16 01:44:31;;;;;;;17.35;2.50;;;;;;;10.37;100.00;99639.22;5025525;28;20034;-85
2021/05/16 01:47:01;;;;;;;18.73;3.40;;;;;;;10.41;100.00;99648.75;5011208;28;20087;-84
2021/05/16 01:49:38;;;;;;;19.00;3.08;;;;;;;10.37;100.00;99641.91;5020919;28;20448;-84
2021/05/16 01:52:04;;;;;;;17.13;2.35;;;;;;;10.38;100.00;99642.75;5023414;28;20056;-84
2021/05/16 01:54:29;;;;;;;17.13;3.22;;;;;;;10.23;100.00;99642.19;5006966;28;20474;-85
2021/05/16 01:56:56;;;;;;;16.48;3.22;;;;;;;10.33;100.00;99643.13;5025671;28;20475;-84
2021/05/16 01:59:21;;;;;;;18.90;2.63;;;;;;;10.36;100.00;99645.59;5026460;28;20064;-84
2021/05/16 02:01:47;;;;;;;18.60;2.78;;;;;;;10.27;100.00;99638.25;5023037;28;20469;-84
2021/05/16 02:04:13;;;;;;;22.15;2.97;;;;;;;10.23;100.00;99639.50;5010261;28;20710;-85
2021/05/16 02:06:40;;;;;;;19.63;2.65;;;;;;;10.17;100.00;99634.63;5025776;28;20087;-84
2021/05/16 02:09:06;;;;;;;11.23;2.50;;;;;;;10.14;100.00;99637.50;5013688;28;20490;-85
2021/05/16 02:11:32;;;;;;;13.90;2.10;;;;;;;10.05;100.00;99643.59;5009103;28;20032;-83
2021/05/16 02:14:03;;;;;;;24.02;2.70;;;;;;;10.12;100.00;99642.16;5022770;28;20065;-84
2021/05/16 02:16:29;;;;;;;23.98;3.28;;;;;;;10.25;100.00;99648.25;5010471;28;20490;-83
2021/05/16 02:19:02;;;;;;;;;;;;;;;10.10;100.00;99650.31;5018948;28;20041;-84
2021/05/16 02:21:31;;;;;;;23.15;3.38;;;;;;;10.09;100.00;99645.06;5023982;28;19916;-85
2021/05/16 02:23:57;;;;;;;21.42;2.33;;;;;;;10.02;100.00;99643.84;5014265;28;20395;-84
2021/05/16 02:26:29;;;;;;;23.87;2.93;;;;;;;10.02;100.00;99647.38;5024026;28;20062;-85
2021/05/16 02:28:54;;;;;;;21.65;4.55;;;;;;;10.18;100.00;99635.47;5022701;28;20037;-85
2021/05/16 02:31:20;;;;;;;22.35;2.80;;;;;;;10.13;100.00;99638.47;5020627;28;20033;-84
2021/05/16 02:33:49;;;;;;;19.00;2.25;;;;;;;9.99;100.00;99636.91;5008724;28;20033;-84
2021/05/16 02:36:15;;;;;;;13.27;2.50;;;;;;;9.92;100.00;99635.69;5008376;28;20021;-84
2021/05/16 02:38:43;;;;;;;15.57;2.60;;;;;;;9.92;100.00;99645.53;5009366;28;20033;-85
2021/05/16 02:41:09;;;;;;;12.55;2.85;;;;;;;9.90;100.00;99642.97;5001476;28;20034;-84
2021/05/16 02:43:35;;;;;;;19.52;3.22;;;;;;;9.93;100.00;99631.19;5039894;28;20033;-83
2021/05/16 02:46:00;;;;;;;17.38;2.45;;;;;;;9.85;100.00;99636.28;5020689;28;20034;-85
2021/05/16 02:48:26;;;;;;;21.30;2.58;;;;;;;9.86;100.00;99638.00;5022239;28;20033;-84
2021/05/16 02:50:52;;;;;;;19.90;3.03;;;;;;;9.83;100.00;99631.03;5026540;28;20044;-84
2021/05/16 02:53:24;;;;;;;20.45;3.10;;;;;;;9.80;100.00;99631.28;5009032;28;20033;-84
2021/05/16 02:55:56;;;;;;;14.88;2.85;;;;;;;9.80;100.00;99633.09;5000664;28;20494;-84
2021/05/16 02:58:22;;;;;;;13.18;2.53;;;;;;;9.89;100.00;99637.72;5020737;28;20091;-85
2021/05/16 03:00:54;;;;;;;24.80;3.38;;;;;;;9.84;100.00;99637.25;5009041;28;20040;-84
2021/05/16 03:03:21;;;;;;;19.83;2.53;;;;;;;9.77;100.00;99636.88;5008998;28;20120;-85
2021/05/16 03:05:48;;;;;;;13.38;2.45;;;;;;;9.73;100.00;99638.94;5013517;28;20033;-84
2021/05/16 03:08:15;;;;;;;13.73;2.53;;;;;;;9.64;100.00;99633.44;5004361;28;20069;-84
2021/05/16 03:10:42;;;;;;;17.10;2.60;;;;;;;9.59;100.00;99633.81;5007356;28;20083;-85
2021/05/16 03:13:08;;;;;;;16.80;3.17;;;;;;;9.62;100.00;99638.09;5028771;28;20049;-83
2021/05/16 03:15:34;;;;;;;17.52;2.95;;;;;;;9.65;100.00;99633.31;5024137;28;20043;-84
2021/05/16 03:18:00;;;;;;;16.75;2.65;;;;;;;9.64;100.00;99639.66;5018781;28;20509;-84
2021/05/16 03:20:27;;;;;;;18.67;2.67;;;;;;;9.62;100.00;99636.25;5012653;28;20033;-84
2021/05/16 03:22:52;;;;;;;14.25;2.35;;;;;;;9.59;100.00;99639.16;5026959;28;20461;-84
2021/05/16 03:25:18;;;;;;;11.65;2.03;;;;;;;9.60;100.00;99646.22;5012352;28;20369;-85
2021/05/16 03:27:45;;;;;;;12.27;2.65;;;;;;;9.53;100.00;99634.28;5046626;28;20053;-84
2021/05/16 03:30:12;;;;;;;9.50;2.20;;;;;;;9.48;100.00;99641.81;5020141;28;20048;-84
2021/05/16 03:32:40;;;;;;;9.88;2.00;;;;;;;9.50;100.00;99642.56;5024438;28;20025;-84
2021/05/16 03:35:08;;;;;;;17.00;2.92;;;;;;;9.47;100.00;99640.09;5011307;28;20033;-84
2021/05/16 03:37:33;;;;;;;14.57;2.50;;;;;;;9.45;100.00;99635.81;5022712;28;20091;-84
2021/05/16 03:39:59;;;;;;;12.43;3.08;;;;;;;9.39;100.00;99636.28;5022005;28;20041;-83
2021/05/16 03:42:24;;;;;;;11.65;2.35;;;;;;;9.39;100.00;99637.16;5008791;28;20037;-84
2021/05/16 03:44:50;;;;;;;11.68;2.45;;;;;;;9.41;100.00;99635.22;5010086;28;20022;-84
2021/05/16 03:47:15;;;;;;;18.25;2.78;;;;;;;9.37;100.00;99641.78;5026820;28;20043;-84
2021/05/16 03:49:41;;;;;;;8.35;2.25;;;;;;;9.41;100.00;99634.38;5011471;28;20045;-84
2021/05/16 03:52:06;;;;;;;13.85;3.28;;;;;;;9.39;100.00;99637.16;5007139;28;20043;-84
2021/05/16 03:54:32;;;;;;;10.15;2.28;;;;;;;9.36;100.00;99639.22;5003759;28;20025;-84
2021/05/16 03:56:57;;;;;;;12.98;2.38;;;;;;;9.34;100.00;99637.50;5027425;28;20403;-84
2021/05/16 03:59:23;;;;;;;8.77;2.08;;;;;;;9.34;100.00;99634.84;5011859;28;20530;-84
2021/05/16 04:01:49;;;;;;;11.68;2.17;;;;;;;9.32;100.00;99631.41;5026358;28;20041;-84
2021/05/16 04:04:15;;;;;;;11.82;2.60;;;;;;;9.38;100.00;99640.78;5021631;28;20037;-84
2021/05/16 04:06:40;;;;;;;18.42;3.22;;;;;;;9.45;100.00;99649.22;5031449;28;20144;-84
2021/05/16 04:09:06;;;;;;;12.05;3.10;;;;;;;9.49;100.00;99648.03;5017663;28;20121;-83
2021/05/16 04:11:31;;;;;;;14.15;2.65;;;;;;;9.40;100.00;99644.22;5020878;28;20060;-85
2021/05/16 04:13:57;;;;;;;9.57;2.72;;;;;;;9.42;100.00;99653.00;5019296;28;20038;-84
2021/05/16 04:16:22;;;;;;;11.75;2.53;;;;;;;9.44;100.00;99645.72;5025702;28;20063;-83
2021/05/16 04:18:48;;;;;;;12.85;3.45;;;;;;;9.45;100.00;99658.09;5021716;28;20030;-84
2021/05/16 04:21:14;;;;;;;12.73;3.50;;;;;;;9.40;100.00;99657.59;5002351;28;20284;-83
2021/05/16 04:23:39;;;;;;;17.48;3.63;;;;;;;9.56;100.00;99652.81;5008855;28;20076;-83
2021/05/16 04:26:05;;;;;;;9.35;3.13;;;;;;;9.57;100.00;99651.81;5009210;28;20065;-84
2021/05/16 04:28:30;;;;;;;19.17;3.33;;;;;;;9.51;100.00;99646.91;5021011;28;20038;-84
2021/05/16 04:30:56;;;;;;;11.57;2.58;;;;;;;9.58;100.00;99650.84;5023256;28;20037;-83
2021/05/16 04:33:21;;;;;;;11.48;2.80;;;;;;;9.62;100.00;99651.47;5038480;28;20095;-85
2021/05/16 04:35:47;;;;;;;19.02;2.58;;;;;;;9.67;100.00;99652.81;5023980;28;20056;-84
2021/05/16 04:38:13;;;;;;;12.52;2.97;;;;;;;9.74;100.00;99661.25;5029855;28;20074;-83
2021/05/16 04:40:38;;;;;;;11.23;3.78;;;;;;;9.87;100.00;99670.03;5018765;28;20038;-84
2021/05/16 04:43:04;;;;;;;15.98;4.00;;;;;;;9.87;100.00;99663.81;5018395;28;20037;-85
2021/05/16 04:45:30;;;;;;;18.27;3.10;;;;;;;10.01;100.00;99666.25;5023075;28;20507;-82
2021/05/16 04:47:55;;;;;;;14.23;3.13;;;;;;;10.09;100.00;99663.84;5012182;28;20613;-84
2021/05/16 04:50:21;;;;;;;16.45;3.80;;;;;;;10.14;100.00;99667.00;5027201;28;20069;-84
2021/05/16 04:52:47;;;;;;;17.60;4.38;;;;;;;10.25;100.00;99667.03;5019168;28;20094;-84
2021/05/16 04:55:14;;;;;;;16.77;3.05;;;;;;;10.33;100.00;99677.16;5023239;28;20053;-84
2021/05/16 04:57:40;;;;;;;16.52;4.97;;;;;;;10.32;100.00;99675.44;5027544;28;20060;-85
2021/05/16 05:00:08;;;;;;;15.13;3.10;;;;;;;10.41;100.00;99672.88;5015382;28;20029;-84
2021/05/16 05:02:35;;;;;;;16.00;3.67;;;;;;;10.54;100.00;99686.16;5009813;28;20508;-85
2021/05/16 05:05:00;;;;;;;19.45;3.70;;;;;;;10.59;100.00;99677.75;5001851;28;20067;-85
2021/05/16 05:07:26;;;;;;;16.55;3.63;;;;;;;10.74;100.00;99673.81;5023896;28;20029;-85
2021/05/16 05:09:51;;;;;;;24.88;4.43;;;;;;;10.75;100.00;99678.19;5009779;28;20413;-84
2021/05/16 05:12:17;;;;;;;16.73;3.75;;;;;;;10.79;100.00;99676.97;5017138;28;20491;-84
2021/05/16 05:14:42;;;;;;;18.15;3.50;;;;;;;10.79;100.00;99676.97;5021547;28;20029;-84
2021/05/16 05:17:08;;;;;;;12.52;3.38;;;;;;;10.79;100.00;99679.66;5008955;28;20560;-85
2021/05/16 05:19:33;;;;;;;15.30;2.90;;;;;;;10.76;100.00;99670.03;5031146;28;20461;-85
2021/05/16 05:21:59;;;;;;;13.80;3.47;;;;;;;10.94;100.00;99670.34;5010884;28;20051;-85
2021/05/16 05:24:24;;;;;;;23.70;4.13;;;;;;;10.96;100.00;99668.38;5009710;28;20038;-85
2021/05/16 05:26:50;;;;;;;17.45;3.00;;;;;;;11.06;100.00;99665.78;5021711;28;20084;-85
2021/05/16 05:29:17;;;;;;;11.63;2.63;;;;;;;11.34;100.00;99676.81;5025818;28;20087;-85
2021/05/16 05:31:44;;;;;;;16.67;3.47;;;;;;;11.46;100.00;99674.06;5025864;28;20044;-84
2021/05/16 05:34:09;;;;;;;15.48;2.70;;;;;;;11.56;100.00;99675.81;5004221;28;20089;-85
2021/05/16 05:36:35;;;;;;;17.17;2.67;;;;;;;11.61;100.00;99678.97;5000514;28;20299;-85
2021/05/16 05:39:00;;;;;;;14.88;2.80;;;;;;;11.72;100.00;99681.63;5018881;28;20196;-85
2021/05/16 05:41:26;;;;;;;10.50;2.92;;;;;;;11.73;100.00;99683.34;5022663;28;20021;-85
2021/05/16 05:43:51;;;;;;;10.85;2.80;;;;;;;11.70;100.00;99693.47;5018105;28;20030;-85
2021/05/16 05:46:17;;;;;;;15.02;2.90;;;;;;;11.58;100.00;99683.75;5022874;28;20604;-85
2021/05/16 05:48:42;;;;;;;15.55;3.10;;;;;;;11.49;100.00;99682.69;5009756;28;20438;-85
2021/05/16 05:51:08;;;;;;;15.73;3.45;;;;;;;11.48;100.00;99690.91;5021293;28;20473;-85
2021/05/16 05:53:34;;;;;;;10.70;3.13;;;;;;;11.46;100.00;99680.28;5010524;28;20499;-85
2021/05/16 05:55:59;;;;;;;14.05;2.20;;;;;;;11.36;100.00;99688.25;5015751;28;20038;-85
2021/05/16 05:58:25;;;;;;;18.08;2.88;;;;;;;11.27;100.00;99680.97;5017842;28;20029;-85
2021/05/16 06:00:50;;;;;;;17.42;2.92;;;;;;;11.35;100.00;99686.56;5019683;28;20052;-85
2021/05/16 06:03:17;;;;;;;12.18;2.13;;;;;;;11.34;100.00;99697.44;5025573;28;20025;-85
2021/05/16 06:05:42;;;;;;;10.60;2.45;;;;;;;11.42;100.00;99699.50;5021982;28;20124;-84
2021/05/16 06:08:07;;;;;;;17.67;4.07;;;;;;;11.45;100.00;99696.53;5005185;28;20158;-85
2021/05/16 06:10:33;;;;;;;11.45;2.83;;;;;;;11.41;100.00;99700.47;5029691;28;20033;-85
2021/05/16 06:12:58;;;;;;;14.15;3.08;;;;;;;11.35;100.00;99691.94;5021932;28;20046;-85
2021/05/16 06:15:24;;;;;;;15.43;2.60;;;;;;;11.47;100.00;99703.50;5018603;28;20478;-85
2021/05/16 06:17:50;;;;;;;9.38;2.20;;;;;;;11.48;100.00;99704.34;5007545;28;20032;-85
2021/05/16 06:20:16;;;;;;;10.13;2.30;;;;;;;11.55;100.00;99705.50;5010802;28;20040;-84
2021/05/16 06:22:41;;;;;;;16.55;3.22;;;;;;;11.65;100.00;99706.47;5008126;28;20033;-85
2021/05/16 06:25:07;;;;;;;10.30;2.70;;;;;;;11.73;100.00;99704.84;5021863;28;20044;-85
2021/05/16 06:27:33;;;;;;;14.13;3.50;;;;;;;11.63;100.00;99709.25;5008056;28;20096;-84
2021/05/16 06:29:58;;;;;;;17.67;3.45;;;;;;;11.71;100.00;99705.94;5007113;28;20083;-85
2021/05/16 06:32:24;;;;;;;16.73;3.40;;;;;;;11.77;100.00;99708.13;5021157;28;20436;-84
2021/05/16 06:34:49;;;;;;;15.90;3.45;;;;;;;11.79;100.00;99713.38;5019124;28;20041;-85
2021/05/16 06:37:18;;;;;;;17.52;3.55;;;;;;;11.72;100.00;99710.34;5022885;28;20045;-85
2021/05/16 06:39:47;;;;;;;16.27;4.90;;;;;;;11.78;100.00;99707.16;5005759;28;20029;-86
2021/05/16 06:42:13;;;;;;;15.98;3.50;;;;;;;11.78;100.00;99717.91;5018655;22;20037;-75
2021/05/16 06:44:38;;;;;;;18.67;2.72;;;;;;;11.88;100.00;99713.44;5005763;28;20029;-74
2021/05/16 06:47:04;;;;;;;15.45;3.05;;;;;;;12.03;100.00;99709.44;5004005;28;20637;-74
2021/05/16 06:49:29;;;;;;;27.52;5.15;;;;;;;12.08;100.00;99715.28;5006579;28;20045;-74
2021/05/16 06:51:55;;;;;;;12.80;3.22;;;;;;;12.22;100.00;99713.22;5007771;28;20038;-73
2021/05/16 06:54:20;;;;;;;19.65;5.05;;;;;;;12.14;100.00;99720.13;4998883;28;20073;-74
2021/05/16 06:56:45;;;;;;;20.40;3.05;;;;;;;12.08;100.00;99717.97;5005112;28;20029;-74
2021/05/16 06:59:11;;;;;;;15.75;4.00;;;;;;;12.25;100.00;99719.19;5006506;28;20034;-75
2021/05/16 07:01:36;;;;;;;22.60;3.63;;;;;;;12.33;100.00;99718.53;4985777;28;20033;-74
2021/05/16 07:04:02;;;;;;;21.67;3.50;;;;;;;12.43;100.00;99719.41;5006865;28;20417;-74
2021/05/16 07:06:27;;;;;;;13.30;3.55;;;;;;;12.41;99.98;99721.38;5008789;28;20482;-74
2021/05/16 07:08:53;;;;;;;13.93;3.63;;;;;;;12.38;98.77;99722.50;5007378;28;20025;-74
2021/05/16 07:11:19;;;;;;;18.58;2.92;;;;;;;12.94;97.08;99725.56;5005121;28;20502;-74
2021/05/16 07:13:44;;;;;;;13.70;4.22;;;;;;;13.97;91.65;99722.38;5009417;28;20046;-74
2021/05/16 07:16:10;;;;;;;21.50;3.50;;;;;;;14.82;85.95;99722.25;5008743;28;20037;-75
2021/05/16 07:18:35;;;;;;;17.58;3.38;;;;;;;15.41;81.76;99724.47;5007870;28;20056;-74
2021/05/16 07:21:01;;;;;;;15.60;3.17;;;;;;;16.06;78.39;99723.22;5003069;28;20048;-74
2021/05/16 07:23:27;;;;;;;15.43;3.22;;;;;;;16.57;76.65;99718.81;5005521;28;20494;-75
2021/05/16 07:25:52;;;;;;;23.23;3.30;;;;;;;16.25;76.44;99721.31;5003004;28;20045;-75
2021/05/16 07:28:18;;;;;;;15.77;2.95;;;;;;;15.47;78.51;99720.31;5005836;28;20034;-75
2021/05/16 07:30:43;;;;;;;16.33;2.70;;;;;;;15.00;80.88;99723.16;5006143;28;20050;-74
2021/05/16 07:33:10;;;;;;;11.80;3.00;;;;;;;14.57;82.36;99724.66;5005448;28;20046;-76
2021/05/16 07:35:35;;;;;;;14.60;2.45;;;;;;;14.12;82.68;99726.34;5004919;28;20038;-75
2021/05/16 07:38:01;;;;;;;14.68;3.53;;;;;;;13.82;84.63;99731.91;5005497;28;20037;-74
2021/05/16 07:40:26;;;;;;;12.23;2.70;;;;;;;13.70;86.55;99723.94;5003642;28;20068;-75
2021/05/16 07:42:53;;;;;;;13.40;2.50;;;;;;;13.75;86.44;99732.50;5006386;28;20040;-74
2021/05/16 07:45:19;;;;;;;23.40;5.70;;;;;;;13.78;86.14;99734.88;4993628;28;20030;-74
2021/05/16 07:47:45;;;;;;;27.98;7.82;;;;;;;13.83;85.91;99733.59;5002318;28;20030;-75
2021/05/16 07:50:12;;;;;;;18.15;4.22;;;;;;;13.77;86.28;99733.19;5009274;28;20509;-75
2021/05/16 07:52:38;;;;;;;6.85;3.40;;;;;;;13.66;84.54;99738.72;5011096;28;20196;-76
2021/05/16 07:55:05;;;;;;;13.40;2.80;;;;;;;14.06;83.83;99735.00;5002180;28;20735;-74
2021/05/16 07:57:31;;;;;;;10.73;3.22;;;;;;;14.12;83.17;99731.72;5010401;28;20069;-75
2021/05/16 07:59:56;;;;;;;25.08;7.38;;;;;;;14.10;83.51;99741.81;5004082;28;20068;-75
2021/05/16 08:02:22;;;;;;;16.58;6.00;;;;;;;13.99;82.97;99733.88;5012718;28;20871;-75
2021/05/16 08:04:47;;;;;;;15.00;4.57;;;;;;;14.10;83.93;99741.81;5014421;28;20068;-75
2021/05/16 08:07:13;;;;;;;22.00;7.65;;;;;;;14.13;83.67;99738.84;5008810;28;20441;-75
2021/05/16 08:09:38;;;;;;;29.17;9.23;;;;;;;14.51;84.08;99741.44;5015395;28;20041;-74
2021/05/16 08:12:04;;;;;;;54.00;16.27;;;;;;;15.30;82.27;99743.63;5009817;28;20045;-75
2021/05/16 08:14:29;;;;;;;19.23;4.68;;;;;;;15.37;79.70;99734.72;5007734;28;20199;-75
2021/05/16 08:16:55;;;;;;;19.75;5.25;;;;;;;15.27;78.03;99728.53;5015798;28;20044;-77
2021/05/16 08:19:21;;;;;;;16.08;2.50;;;;;;;15.81;74.70;99736.69;5008830;28;20423;-75
2021/05/16 08:21:47;;;;;;;9.68;2.17;;;;;;;16.34;71.71;99740.19;5008687;28;20087;-75
2021/05/16 08:24:14;;;;;;;11.18;2.20;;;;;;;17.12;70.63;99729.22;5010507;28;20129;-75
2021/05/16 08:26:39;;;;;;;12.75;2.30;;;;;;;17.88;65.96;99748.06;4989654;28;20041;-76
2021/05/16 08:29:05;;;;;;;15.90;2.80;;;;;;;17.56;64.33;99743.41;5003907;28;20307;-75
2021/05/16 08:31:35;;;;;;;11.68;3.30;;;;;;;17.45;66.56;99739.16;5008920;28;20116;-76
2021/05/16 08:34:05;;;;;;;15.73;3.55;;;;;;;17.57;64.26;99740.56;5021312;28;20034;-76
2021/05/16 08:36:35;;;;;;;11.30;3.40;;;;;;;17.60;64.53;99736.63;4990428;28;20041;-75
2021/05/16 08:39:00;;;;;;;10.73;2.65;;;;;;;17.16;63.45;99738.72;5006682;28;20030;-76
2021/05/16 08:41:26;;;;;;;21.23;3.20;;;;;;;16.70;66.20;99730.09;5007906;28;20045;-76
2021/05/16 08:43:51;;;;;;;17.25;3.38;;;;;;;16.70;66.52;99730.09;5011918;28;20038;-75
2021/05/16 08:46:17;;;;;;;15.48;3.17;;;;;;;16.70;68.41;99721.09;5006955;28;20030;-75
2021/05/16 08:48:43;;;;;;;14.38;2.30;;;;;;;17.47;66.72;99728.97;5006237;28;20458;-76
2021/05/16 08:51:10;;;;;;;18.30;3.60;;;;;;;18.07;62.99;99737.72;5012146;28;20283;-75
2021/05/16 08:53:36;;;;;;;14.52;3.05;;;;;;;18.28;62.56;99739.91;5005208;28;20034;-75
2021/05/16 08:56:06;;;;;;;19.42;3.33;;;;;;;18.23;60.20;99720.56;5006171;28;20034;-75
2021/05/16 08:58:32;;;;;;;19.95;5.72;;;;;;;18.26;60.56;99736.53;5010433;28;20524;-76
2021/05/16 09:00:57;;;;;;;17.88;4.43;;;;;;;17.75;61.79;99732.28;4986264;28;20038;-75
2021/05/16 09:03:24;;;;;;;18.58;2.78;;;;;;;17.08;61.42;99731.44;5007759;28;20030;-75
2021/05/16 09:05:52;;;;;;;18.23;2.95;;;;;;;16.67;64.78;99730.41;4998326;28;20042;-73
2021/05/16 09:08:21;;;;;;;19.10;3.35;;;;;;;16.02;71.93;99735.38;4998247;28;20030;-75
2021/05/16 09:10:56;;;;;;;8.50;2.88;;;;;;;16.87;70.05;99731.84;5004000;28;20113;-76
2021/05/16 09:13:23;;;;;;;13.40;2.83;;;;;;;17.84;67.43;99736.69;5006164;28;20576;-75
2021/05/16 09:16:09;;;;;;;9.60;2.65;;;;;;;18.17;68.93;99730.25;5003728;28;20026;-76
2021/05/16 09:18:51;;;;;;;9.90;2.63;;;;;;;18.30;61.90;99729.72;5003838;28;20505;-76
2021/05/16 09:21:33;;;;;;;13.20;1.92;;;;;;;18.56;64.08;99733.09;5002232;28;20026;-76
2021/05/16 09:24:02;;;;;;;12.57;2.55;;;;;;;18.85;62.22;99731.66;5002901;28;20088;-75
2021/05/16 09:26:36;;;;;;;8.18;1.77;;;;;;;19.03;62.85;99739.56;5003912;28;20074;-75
2021/05/16 09:29:16;;;;;;;8.23;2.00;;;;;;;19.34;60.90;99732.25;5005086;28;20506;-76
2021/05/16 09:31:42;;;;;;;9.30;1.90;;;;;;;19.14;60.80;99733.72;5002814;28;20070;-75
2021/05/16 09:34:10;;;;;;;7.75;2.08;;;;;;;19.14;60.92;99737.28;5006202;28;20061;-76
2021/05/16 09:36:36;;;;;;;9.48;2.33;;;;;;;18.53;61.41;99738.00;5004116;28;20573;-75
2021/05/16 09:39:20;;;;;;;8.75;2.85;;;;;;;18.09;66.55;99718.53;5006124;28;20429;-76
2021/05/16 09:41:54;;;;;;;8.10;2.53;;;;;;;17.58;67.18;99728.69;5005686;28;20502;-76
2021/05/16 09:44:32;;;;;;;17.80;2.90;;;;;;;16.99;67.65;99735.97;5009211;28;20038;-72
2021/05/16 09:47:11;;;;;;;3.50;1.38;;;;;;;15.91;62.60;99735.63;5008592;28;20058;-75
2021/05/16 09:49:37;;;;;;;11.85;1.10;;;;;;;15.90;61.50;99736.63;5007395;28;20030;-76
2021/05/16 09:52:16;;;;;;;3.63;0.80;;;;;;;15.82;64.16;99728.44;5006986;28;20447;-75
2021/05/16 09:54:59;;;;;;;8.35;1.05;;;;;;;15.53;68.05;99738.66;5007159;28;20034;-75
2021/05/16 09:57:25;;;;;;;5.80;1.13;;;;;;;15.86;68.52;99731.69;5007360;28;20034;-76
2021/05/16 09:59:53;;;;;;;3.70;0.88;;;;;;;16.24;70.15;99728.56;5004702;28;20104;-75
2021/05/16 10:02:21;;;;;;;11.43;2.30;;;;;;;16.32;69.62;99722.38;5010161;28;20033;-75
2021/05/16 10:04:47;;;;;;;7.90;1.15;;;;;;;16.49;66.04;99737.72;5002089;28;20040;-74
2021/05/16 10:07:13;;;;;;;6.47;1.80;;;;;;;16.66;65.14;99728.72;5006356;28;20040;-76
2021/05/16 10:09:38;;;;;;;6.78;1.42;;;;;;;16.70;64.59;99730.09;5007855;28;20026;-75
2021/05/16 10:12:05;;;;;;;7.93;1.83;;;;;;;16.98;64.41;99726.13;5012400;28;20041;-76
2021/05/16 10:14:35;;;;;;;7.32;1.30;;;;;;;16.87;61.52;99715.59;5006929;28;20034;-76
2021/05/16 10:17:01;;;;;;;7.85;1.40;;;;;;;17.02;66.13;99715.81;4997830;28;20381;-76
2021/05/16 10:19:33;;;;;;;6.13;1.08;;;;;;;17.25;63.07;99705.22;5007177;28;20053;-76
2021/05/16 10:22:07;;;;;;;12.40;1.75;;;;;;;17.11;61.30;99695.00;5000692;28;20053;-76
2021/05/16 10:24:44;;;;;;;8.55;1.50;;;;;;;17.18;60.06;99699.59;5005014;28;20116;-76
2021/05/16 10:27:25;;;;;;;12.88;4.45;;;;;;;17.32;62.00;99690.81;5002260;28;20029;-75
2021/05/16 10:30:05;;;;;;;6.53;1.90;;;;;;;17.53;59.64;99698.47;5011667;28;20048;-77
2021/05/16 10:32:37;;;;;;;10.60;2.75;;;;;;;17.40;59.81;99690.81;5003786;28;20034;-76
2021/05/16 10:35:06;;;;;;;6.25;1.20;;;;;;;17.39;59.66;99683.72;5001907;28;20402;-76
2021/05/16 10:37:35;;;;;;;10.60;2.03;;;;;;;17.77;62.14;99675.97;5008331;28;20029;-76
2021/05/16 10:40:04;;;;;;;6.28;2.63;;;;;;;17.87;58.54;99682.06;5002531;28;20032;-76
2021/05/16 10:42:39;;;;;;;5.82;1.55;;;;;;;17.71;58.18;99677.47;5007558;28;20033;-76
2021/05/16 10:45:15;;;;;;;4.90;1.63;;;;;;;17.83;60.53;99674.44;5014747;28;20022;-76
2021/05/16 10:47:41;;;;;;;9.20;1.83;;;;;;;18.14;59.44;99683.59;5000249;28;20506;-76
2021/05/16 10:50:11;;;;;;;10.32;1.80;;;;;;;18.13;57.33;99666.44;5009986;28;20048;-77
2021/05/16 10:52:37;;;;;;;8.10;1.30;;;;;;;18.27;59.21;99675.72;5014676;28;20033;-77
2021/05/16 10:55:05;;;;;;;6.20;1.55;;;;;;;18.18;57.84;99657.75;5012206;28;20044;-76
2021/05/16 10:57:37;;;;;;;9.23;1.60;;;;;;;18.37;57.45;99665.53;5010628;28;20029;-75
2021/05/16 11:00:29;;;;;;;4.68;1.73;;;;;;;18.40;57.78;99657.00;5007215;28;20050;-76
2021/05/16 11:03:10;;;;;;;8.10;1.65;;;;;;;18.70;58.59;99665.47;5003858;28;20042;-76
2021/05/16 11:08:08;;;;;;;17.65;2.00;;;;;;;19.14;54.45;99655.69;5004577;28;20072;-77
2021/05/16 11:10:33;;;;;;;8.88;1.65;;;;;;;19.38;54.63;99647.38;5010132;28;20040;-75
2021/05/16 11:13:15;;;;;;;8.27;3.05;;;;;;;19.58;55.42;99652.34;5006972;28;20038;-76
2021/05/16 11:15:52;;;;;;;9.15;2.58;;;;;;;19.17;54.30;99652.63;5009561;28;20034;-77
2021/05/16 11:18:19;;;;;;;12.20;3.28;;;;;;;19.29;54.75;99644.91;5025415;28;20034;-76
2021/05/16 11:20:55;;;;;;;10.77;2.17;;;;;;;19.10;53.91;99635.31;5009211;28;20632;-76
2021/05/16 11:23:25;;;;;;;7.22;1.73;;;;;;;18.99;50.89;99635.75;5011136;28;20026;-76
2021/05/16 11:25:58;;;;;;;3.80;1.00;;;;;;;19.15;50.51;99640.22;5012448;28;20084;-77
2021/05/16 11:28:25;;;;;;;10.63;1.80;;;;;;;19.18;49.96;99640.72;5011179;28;20084;-76